createdAt,value
2022-08-24T00:00:18.039Z,2.28
2022-08-24T00:02:44.999Z,2.65
2022-08-24T00:05:14.708Z,2.50
2022-08-24T00:07:41.799Z,2.70
2022-08-24T00:10:10.697Z,2.58
2022-08-24T00:12:37.539Z,2.70
2022-08-24T00:15:06.233Z,2.47
2022-08-24T00:17:34.222Z,2.65
2022-08-24T00:20:01.110Z,2.38
2022-08-24T00:22:28.948Z,2.58
2022-08-24T00:24:56.753Z,2.83
2022-08-24T00:27:23.378Z,2.40
2022-08-24T00:29:50.076Z,2.58
2022-08-24T00:32:16.682Z,2.53
2022-08-24T00:34:58.928Z,2.38
2022-08-24T00:37:28.610Z,2.43
2022-08-24T00:39:56.334Z,2.85
2022-08-24T00:42:24.202Z,2.72
2022-08-24T00:44:50.942Z,2.63
2022-08-24T00:47:23.940Z,2.83
2022-08-24T00:49:54.554Z,2.40
2022-08-24T00:52:38.911Z,2.50
2022-08-24T00:55:15.122Z,2.53
2022-08-24T00:57:45.523Z,2.58
2022-08-24T01:00:19.105Z,2.72
2022-08-24T01:02:48.839Z,2.30
2022-08-24T01:05:19.102Z,3.00
2022-08-24T01:07:49.285Z,2.58
2022-08-24T01:10:19.726Z,2.70
2022-08-24T01:12:59.912Z,2.70
2022-08-24T01:15:30.819Z,2.90
2022-08-24T01:18:16.934Z,2.90
2022-08-24T01:20:49.374Z,2.97
2022-08-24T01:23:36.464Z,2.53
2022-08-24T01:26:04.383Z,2.80
2022-08-24T01:28:31.288Z,2.80
2022-08-24T01:30:59.893Z,2.73
2022-08-24T01:33:31.388Z,2.60
2022-08-24T01:36:04.587Z,2.95
2022-08-24T01:38:33.005Z,3.10
2022-08-24T01:41:02.407Z,2.78
2022-08-24T01:43:29.757Z,2.85
2022-08-24T01:45:57.800Z,3.23
2022-08-24T01:48:24.647Z,3.47
2022-08-24T01:50:53.073Z,3.83
2022-08-24T01:53:21.674Z,3.20
2022-08-24T01:55:48.828Z,3.70
2022-08-24T01:58:15.868Z,3.55
2022-08-24T02:00:44.590Z,3.90
2022-08-24T02:03:13.300Z,4.00
2022-08-24T02:05:40.455Z,3.97
2022-08-24T02:08:08.956Z,4.07
2022-08-24T02:10:35.603Z,4.32
2022-08-24T02:13:04.327Z,4.30
2022-08-24T02:15:40.189Z,4.75
2022-08-24T02:18:14.778Z,4.40
2022-08-24T02:20:43.325Z,4.68
2022-08-24T02:23:10.093Z,4.15
2022-08-24T02:25:36.889Z,3.35
2022-08-24T02:28:03.981Z,3.70
2022-08-24T02:30:32.097Z,3.80
2022-08-24T02:33:00.254Z,3.97
2022-08-24T02:35:29.738Z,3.97
2022-08-24T02:37:57.983Z,3.88
2022-08-24T02:40:26.757Z,5.40
2022-08-24T02:42:55.621Z,4.55
2022-08-24T02:45:22.296Z,4.72
2022-08-24T02:47:49.855Z,4.85
2022-08-24T02:50:18.735Z,4.38
2022-08-24T02:52:46.370Z,5.13
2022-08-24T02:55:19.828Z,4.50
2022-08-24T02:57:48.201Z,4.73
2022-08-24T03:00:17.800Z,3.97
2022-08-24T03:02:51.566Z,4.20
2022-08-24T03:05:18.973Z,4.07
2022-08-24T03:07:46.097Z,4.70
2022-08-24T03:10:13.215Z,4.95
2022-08-24T03:12:40.667Z,4.00
2022-08-24T03:15:10.543Z,4.05
2022-08-24T03:17:39.869Z,4.10
2022-08-24T03:20:11.714Z,4.05
2022-08-24T03:22:38.934Z,4.32
2022-08-24T03:25:06.553Z,3.83
2022-08-24T03:27:33.151Z,4.80
2022-08-24T03:29:59.821Z,4.65
2022-08-24T03:32:27.863Z,4.57
2022-08-24T03:34:55.872Z,5.30
2022-08-24T03:37:22.490Z,3.80
2022-08-24T03:39:51.029Z,5.20
2022-08-24T03:42:18.181Z,4.13
2022-08-24T03:44:44.817Z,4.82
2022-08-24T03:47:11.859Z,4.20
2022-08-24T03:49:39.741Z,4.72
2022-08-24T03:52:06.884Z,4.20
2022-08-24T03:54:34.275Z,5.18
2022-08-24T03:57:01.642Z,4.20
2022-08-24T03:59:28.859Z,4.40
2022-08-24T04:01:58.067Z,4.30
2022-08-24T04:04:27.122Z,4.03
2022-08-24T04:06:53.869Z,3.80
2022-08-24T04:09:23.698Z,4.20
2022-08-24T04:11:51.850Z,4.13
2022-08-24T04:14:27.381Z,3.22
2022-08-24T04:17:06.482Z,3.25
2022-08-24T04:19:57.329Z,2.97
2022-08-24T04:22:29.501Z,3.42
2022-08-24T04:24:56.337Z,3.30
2022-08-24T04:27:23.614Z,2.80
2022-08-24T04:29:51.024Z,3.25
2022-08-24T04:32:18.909Z,3.03
2022-08-24T04:34:47.133Z,3.20
2022-08-24T04:37:15.006Z,2.67
2022-08-24T04:39:42.622Z,2.80
2022-08-24T04:42:31.711Z,2.97
2022-08-24T04:45:00.668Z,2.85
2022-08-24T04:47:27.339Z,2.65
2022-08-24T04:49:53.997Z,2.50
2022-08-24T04:52:20.798Z,2.67
2022-08-24T04:54:47.417Z,2.92
2022-08-24T04:57:20.785Z,2.55
2022-08-24T04:59:48.448Z,2.80
2022-08-24T05:02:15.312Z,2.83
2022-08-24T05:04:44.497Z,2.45
2022-08-24T05:07:12.348Z,2.80
2022-08-24T05:09:41.075Z,2.87
2022-08-24T05:12:08.136Z,3.42
2022-08-24T05:14:38.936Z,3.40
2022-08-24T05:17:05.980Z,3.10
2022-08-24T05:19:37.394Z,3.40
2022-08-24T05:22:05.338Z,3.20
2022-08-24T05:24:32.070Z,3.70
2022-08-24T05:27:00.456Z,3.30
2022-08-24T05:29:29.147Z,3.13
2022-08-24T05:31:55.919Z,3.15
2022-08-24T05:34:23.986Z,3.08
2022-08-24T05:36:51.749Z,2.78
2022-08-24T05:39:32.801Z,3.30
2022-08-24T05:42:05.064Z,2.92
2022-08-24T05:44:37.852Z,3.03
2022-08-24T05:47:05.004Z,3.30
2022-08-24T05:49:31.843Z,3.05
2022-08-24T05:51:58.888Z,3.30
2022-08-24T05:54:26.910Z,2.97
2022-08-24T05:57:04.672Z,3.50
2022-08-24T05:59:37.796Z,3.28
2022-08-24T06:02:10.404Z,3.10
2022-08-24T06:04:38.199Z,3.17
2022-08-24T06:07:09.146Z,3.15
2022-08-24T06:09:39.454Z,3.05
2022-08-24T06:12:07.059Z,2.87
2022-08-24T06:14:34.604Z,2.90
2022-08-24T06:17:05.940Z,3.50
2022-08-24T06:19:33.163Z,3.13
2022-08-24T06:21:59.812Z,3.43
2022-08-24T06:24:47.486Z,3.08
2022-08-24T06:27:23.298Z,2.92
2022-08-24T06:29:59.223Z,3.63
2022-08-24T06:32:44.171Z,2.90
2022-08-24T06:35:20.872Z,2.88
2022-08-24T06:37:48.336Z,2.60
2022-08-24T06:40:15.815Z,2.97
2022-08-24T06:42:43.538Z,2.75
2022-08-24T06:45:22.311Z,2.40
2022-08-24T06:47:51.060Z,2.10
2022-08-24T06:50:19.566Z,2.60
2022-08-24T06:52:51.047Z,2.53
2022-08-24T06:55:17.938Z,2.30
2022-08-24T06:57:47.961Z,2.70
2022-08-24T07:00:17.748Z,2.35
2022-08-24T07:02:44.837Z,2.13
2022-08-24T07:05:11.794Z,2.05
2022-08-24T07:08:06.153Z,2.03
2022-08-24T07:10:34.407Z,2.10
2022-08-24T07:13:01.365Z,2.00
2022-08-24T07:15:28.165Z,2.03
2022-08-24T07:18:10.004Z,1.83
2022-08-24T07:20:39.608Z,2.00
2022-08-24T07:23:14.615Z,1.57
2022-08-24T07:25:46.240Z,2.00
2022-08-24T07:28:16.742Z,2.05
2022-08-24T07:30:44.173Z,1.70
2022-08-24T07:33:13.211Z,1.70
2022-08-24T07:35:41.561Z,2.17
2022-08-24T07:38:08.712Z,2.15
2022-08-24T07:41:01.664Z,1.80
2022-08-24T07:43:24.049Z,1.65
2022-08-24T07:45:51.753Z,1.75
2022-08-24T07:48:19.366Z,1.70
2022-08-24T07:50:47.121Z,1.42
2022-08-24T07:53:20.675Z,1.70
2022-08-24T07:55:54.058Z,1.70
2022-08-24T07:58:21.432Z,1.70
2022-08-24T08:00:49.506Z,1.90
2022-08-24T08:03:16.865Z,1.50
2022-08-24T08:05:45.145Z,1.90
2022-08-24T08:08:12.073Z,1.90
2022-08-24T08:10:40.730Z,1.60
2022-08-24T08:13:08.096Z,1.60
2022-08-24T08:15:36.241Z,1.77
2022-08-24T08:18:07.808Z,1.75
2022-08-24T08:20:40.412Z,1.83
2022-08-24T08:23:26.260Z,2.10
2022-08-24T08:25:59.400Z,1.88
2022-08-24T08:28:48.899Z,1.67
2022-08-24T08:31:15.932Z,2.08
2022-08-24T08:33:42.713Z,2.10
2022-08-24T08:36:15.075Z,2.10
2022-08-24T08:38:46.694Z,2.20
2022-08-24T08:41:25.970Z,1.75
2022-08-24T08:44:20.020Z,2.10
2022-08-24T08:46:52.993Z,2.00
2022-08-24T08:49:51.040Z,1.70
2022-08-24T08:52:27.234Z,2.00
2022-08-24T08:55:21.873Z,1.55
2022-08-24T08:58:18.585Z,1.50
2022-08-24T09:00:52.915Z,1.75
2022-08-24T09:04:03.532Z,1.73
2022-08-24T09:06:46.262Z,2.10
2022-08-24T09:09:34.990Z,1.55
2022-08-24T09:12:08.902Z,1.73
2022-08-24T09:14:59.974Z,1.67
2022-08-24T09:17:50.089Z,1.90
2022-08-24T09:20:29.052Z,1.70
2022-08-24T09:23:18.845Z,1.70
2022-08-24T09:25:58.374Z,2.00
2022-08-24T09:28:37.935Z,1.90
2022-08-24T09:34:23.593Z,1.60
2022-08-24T09:37:09.926Z,1.75
2022-08-24T09:39:58.673Z,1.90
2022-08-24T09:42:59.997Z,1.80
2022-08-24T09:45:58.414Z,1.70
2022-08-24T09:48:26.153Z,1.70
2022-08-24T09:50:58.557Z,2.00
2022-08-24T09:53:28.126Z,1.70
2022-08-24T09:56:27.988Z,1.90
2022-08-24T09:58:57.817Z,1.75
2022-08-24T10:02:02.822Z,1.70
2022-08-24T10:04:43.139Z,1.67
2022-08-24T10:07:22.437Z,1.73
2022-08-24T10:10:16.308Z,1.88
2022-08-24T10:13:18.497Z,1.80
2022-08-24T10:15:58.760Z,2.10
2022-08-24T10:18:48.331Z,1.50
2022-08-24T10:21:37.150Z,1.65
2022-08-24T10:24:06.473Z,1.50
2022-08-24T10:27:18.620Z,1.33
2022-08-24T10:30:28.228Z,1.15
2022-08-24T10:33:07.326Z,2.03
2022-08-24T10:35:48.514Z,1.38
2022-08-24T10:39:06.854Z,1.08
2022-08-24T10:42:06.429Z,1.55
2022-08-24T10:44:49.961Z,1.20
2022-08-24T10:47:23.206Z,1.25
2022-08-24T10:50:31.039Z,1.48
2022-08-24T10:53:19.005Z,1.48
2022-08-24T10:55:46.020Z,1.35
2022-08-24T10:58:40.879Z,1.70
2022-08-24T11:01:35.433Z,1.35
2022-08-24T11:04:09.875Z,1.30
2022-08-24T11:06:39.490Z,1.25
2022-08-24T11:09:19.738Z,1.20
2022-08-24T11:11:49.871Z,1.67
2022-08-24T11:14:16.419Z,1.25
2022-08-24T11:16:45.612Z,1.13
2022-08-24T11:19:25.930Z,1.40
2022-08-24T11:21:55.176Z,1.17
2022-08-24T11:24:39.960Z,1.30
2022-08-24T11:27:31.139Z,1.20
2022-08-24T11:30:02.273Z,1.30
2022-08-24T11:32:31.593Z,1.20
2022-08-24T11:35:16.240Z,1.33
2022-08-24T11:37:43.717Z,1.05
2022-08-24T11:40:10.833Z,1.65
2022-08-24T11:42:49.623Z,1.23
2022-08-24T11:45:25.873Z,1.50
2022-08-24T11:48:12.428Z,1.30
2022-08-24T11:50:57.004Z,0.90
2022-08-24T11:53:33.222Z,1.25
2022-08-24T11:56:00.645Z,1.00
2022-08-24T11:58:37.754Z,1.52
2022-08-24T12:01:35.280Z,1.33
2022-08-24T12:04:17.662Z,1.05
2022-08-24T12:07:20.299Z,0.93
2022-08-24T12:10:01.416Z,1.07
2022-08-24T12:12:28.024Z,1.30
2022-08-24T12:15:03.866Z,1.02
2022-08-24T12:17:51.768Z,1.80
2022-08-24T12:20:41.144Z,1.10
2022-08-24T12:23:15.162Z,1.02
2022-08-24T12:26:04.559Z,1.63
2022-08-24T12:28:44.060Z,1.52
2022-08-24T12:31:29.442Z,1.40
2022-08-24T12:34:01.981Z,1.45
2022-08-24T12:36:36.492Z,1.30
2022-08-24T12:39:10.946Z,0.90
2022-08-24T12:41:48.612Z,1.10
2022-08-24T12:44:17.211Z,1.50
2022-08-24T12:46:44.650Z,1.08
2022-08-24T12:49:50.665Z,1.10
2022-08-24T12:52:35.524Z,1.13
2022-08-24T12:55:19.676Z,1.00
2022-08-24T12:58:40.156Z,1.10
2022-08-24T13:01:26.961Z,1.27
2022-08-24T13:04:08.182Z,1.40
2022-08-24T13:06:42.624Z,1.23
2022-08-24T13:09:26.742Z,1.15
2022-08-24T13:11:55.932Z,1.15
2022-08-24T13:14:29.283Z,1.20
2022-08-24T13:16:56.321Z,0.95
2022-08-24T13:19:23.021Z,1.13
2022-08-24T13:21:59.036Z,1.13
2022-08-24T13:24:28.689Z,1.20
2022-08-24T13:26:57.389Z,1.23
2022-08-24T13:29:33.427Z,1.40
2022-08-24T13:32:01.683Z,1.90
2022-08-24T13:34:44.289Z,1.70
2022-08-24T13:37:18.684Z,1.60
2022-08-24T13:40:16.441Z,1.77
2022-08-24T13:43:27.261Z,1.85
2022-08-24T13:46:26.223Z,1.67
2022-08-24T13:49:01.521Z,2.00
2022-08-24T13:51:30.652Z,1.77
2022-08-24T13:54:03.777Z,1.50
2022-08-24T13:56:58.405Z,1.52
2022-08-24T13:59:55.843Z,1.60
2022-08-24T14:02:29.328Z,1.40
2022-08-24T14:05:12.849Z,1.60
2022-08-24T14:08:14.976Z,1.90
2022-08-24T14:10:48.654Z,1.35
2022-08-24T14:13:41.194Z,1.70
2022-08-24T14:16:45.369Z,1.77
2022-08-24T14:19:25.225Z,1.80
2022-08-24T14:22:24.244Z,1.50
2022-08-24T14:25:01.973Z,1.70
2022-08-24T14:27:40.777Z,1.90
2022-08-24T14:30:19.856Z,1.88
2022-08-24T14:32:58.688Z,1.50
2022-08-24T14:35:32.033Z,1.75
2022-08-24T14:38:28.937Z,2.00
2022-08-24T14:41:10.766Z,1.95
2022-08-24T14:43:55.910Z,1.60
2022-08-24T14:46:43.034Z,2.00
2022-08-24T14:49:42.229Z,1.65
2022-08-24T14:52:50.445Z,1.90
2022-08-24T14:55:32.065Z,1.90
2022-08-24T14:58:11.574Z,2.00
2022-08-24T15:00:52.825Z,2.20
2022-08-24T15:03:49.834Z,3.00
2022-08-24T15:06:39.627Z,2.78
2022-08-24T15:09:27.244Z,3.50
2022-08-24T15:12:10.783Z,4.07
2022-08-24T15:14:48.321Z,3.03
2022-08-24T15:17:23.309Z,3.70
2022-08-24T15:20:08.570Z,2.53
2022-08-24T15:23:02.213Z,2.60
2022-08-24T15:25:36.855Z,2.70
2022-08-24T15:28:08.394Z,3.10
2022-08-24T15:30:39.843Z,3.33
2022-08-24T15:33:09.436Z,3.03
2022-08-24T15:35:41.094Z,2.70
2022-08-24T15:38:29.261Z,2.70
2022-08-24T15:41:14.330Z,2.40
2022-08-24T15:44:01.087Z,2.40
2022-08-24T15:46:42.371Z,2.38
2022-08-24T15:49:21.009Z,2.90
2022-08-24T15:51:58.330Z,2.80
2022-08-24T15:54:25.514Z,2.55
2022-08-24T15:57:00.730Z,2.90
2022-08-24T15:59:39.528Z,2.55
2022-08-24T16:02:30.980Z,3.00
2022-08-24T16:05:09.416Z,3.20
2022-08-24T16:08:04.326Z,2.75
2022-08-24T16:10:33.324Z,3.45
2022-08-24T16:13:28.738Z,3.67
2022-08-24T16:16:09.353Z,3.22
2022-08-24T16:18:50.199Z,3.08
2022-08-24T16:21:45.225Z,3.30
2022-08-24T16:24:37.353Z,2.92
2022-08-24T16:27:03.989Z,2.80
2022-08-24T16:29:37.035Z,3.47
2022-08-24T16:32:26.701Z,3.15
2022-08-24T16:35:17.141Z,2.75
2022-08-24T16:37:43.752Z,3.28
2022-08-24T16:40:14.117Z,2.92
2022-08-24T16:42:41.557Z,2.80
2022-08-24T16:45:10.779Z,3.05
2022-08-24T16:47:37.668Z,3.10
2022-08-24T16:50:06.669Z,2.80
2022-08-24T16:52:33.528Z,2.97
2022-08-24T16:55:01.458Z,3.00
2022-08-24T16:57:31.743Z,3.10
2022-08-24T16:59:58.667Z,2.67
2022-08-24T17:02:28.487Z,2.80
2022-08-24T17:04:56.141Z,3.08
2022-08-24T17:07:31.831Z,2.85
2022-08-24T17:10:05.292Z,2.40
2022-08-24T17:12:32.007Z,2.60
2022-08-24T17:14:59.156Z,2.63
2022-08-24T17:17:26.021Z,2.75
2022-08-24T17:19:54.350Z,2.83
2022-08-24T17:22:23.144Z,2.83
2022-08-24T17:24:50.370Z,3.50
2022-08-24T17:27:20.881Z,3.05
2022-08-24T17:29:48.455Z,3.00
2022-08-24T17:32:16.310Z,3.00
2022-08-24T17:34:43.000Z,3.17
2022-08-24T17:37:10.416Z,2.70
2022-08-24T17:39:37.470Z,3.10
2022-08-24T17:42:12.704Z,3.20
2022-08-24T17:44:51.004Z,2.72
2022-08-24T17:47:18.882Z,3.40
2022-08-24T17:49:46.853Z,2.85
2022-08-24T17:52:17.157Z,3.05
2022-08-24T17:54:43.780Z,3.30
2022-08-24T17:57:13.154Z,4.47
2022-08-24T17:59:39.886Z,4.47
2022-08-24T18:02:09.947Z,4.25
2022-08-24T18:04:38.228Z,4.50
2022-08-24T18:07:11.694Z,5.15
2022-08-24T18:09:54.818Z,4.65
2022-08-24T18:12:25.081Z,4.83
2022-08-24T18:14:52.767Z,4.60
2022-08-24T18:17:23.036Z,4.00
2022-08-24T18:19:50.897Z,5.15
2022-08-24T18:22:17.566Z,3.42
2022-08-24T18:24:44.723Z,4.23
2022-08-24T18:27:17.651Z,6.10
2022-08-24T18:29:46.390Z,6.10
2022-08-24T18:32:13.451Z,7.70
2022-08-24T18:34:43.065Z,5.30
2022-08-24T18:37:09.688Z,4.47
2022-08-24T18:39:36.648Z,4.85
2022-08-24T18:42:08.799Z,4.78
2022-08-24T18:44:37.008Z,4.85
2022-08-24T18:47:03.851Z,4.18
2022-08-24T18:49:30.445Z,4.13
2022-08-24T18:51:58.093Z,4.05
2022-08-24T18:54:37.844Z,3.23
2022-08-24T18:57:07.021Z,2.65
2022-08-24T18:59:35.407Z,2.90
2022-08-24T19:02:32.001Z,3.63
2022-08-24T19:05:01.256Z,3.38
2022-08-24T19:07:30.274Z,3.67
2022-08-24T19:09:57.103Z,3.00
2022-08-24T19:12:24.173Z,3.45
2022-08-24T19:14:56.799Z,3.75
2022-08-24T19:17:23.694Z,4.20
2022-08-24T19:19:50.337Z,3.85
2022-08-24T19:22:17.401Z,5.10
2022-08-24T19:24:45.026Z,5.40
2022-08-24T19:27:12.016Z,4.70
2022-08-24T19:29:55.266Z,5.43
2022-08-24T19:32:25.732Z,5.32
2022-08-24T19:34:55.880Z,7.43
2022-08-24T19:37:25.526Z,6.78
2022-08-24T19:39:53.062Z,9.55
2022-08-24T19:42:20.977Z,11.57
2022-08-24T19:45:06.831Z,14.95
2022-08-24T19:47:34.486Z,15.00
2022-08-24T19:50:03.821Z,15.85
2022-08-24T19:52:32.565Z,16.70
2022-08-24T19:54:59.409Z,17.85
2022-08-24T19:57:42.603Z,18.50
2022-08-24T20:00:18.010Z,19.67
2022-08-24T20:02:49.685Z,20.85
2022-08-24T20:05:18.689Z,21.13
2022-08-24T20:07:46.435Z,25.60
2022-08-24T20:10:14.920Z,23.52
2022-08-24T20:12:42.100Z,23.05
2022-08-24T20:15:09.205Z,22.38
2022-08-24T20:17:36.669Z,25.27
2022-08-24T20:20:06.344Z,24.20
2022-08-24T20:22:33.217Z,28.40
2022-08-24T20:24:59.964Z,27.98
2022-08-24T20:27:27.893Z,29.08
2022-08-24T20:29:55.364Z,34.93
2022-08-24T20:32:22.848Z,51.83
2022-08-24T20:34:50.000Z,57.05
2022-08-24T20:37:27.069Z,66.15
2022-08-24T20:39:58.000Z,70.55
2022-08-24T20:42:26.987Z,72.68
2022-08-24T20:44:54.799Z,76.55
2022-08-24T20:47:22.416Z,79.53
2022-08-24T20:49:51.462Z,91.37
2022-08-24T20:52:18.377Z,101.18
2022-08-24T20:54:45.162Z,114.55
2022-08-24T20:57:16.784Z,117.27
2022-08-24T20:59:43.617Z,138.73
2022-08-24T21:02:10.320Z,145.15
2022-08-24T21:04:37.627Z,152.35
2022-08-24T21:07:08.330Z,178.50
2022-08-24T21:09:34.940Z,186.82
2022-08-24T21:12:01.535Z,194.50
2022-08-24T21:14:28.344Z,202.13
2022-08-24T21:16:57.236Z,212.35
2022-08-24T21:19:23.934Z,221.90
2022-08-24T21:21:51.136Z,225.80
2022-08-24T21:24:18.132Z,225.18
2022-08-24T21:26:45.086Z,231.88
2022-08-24T21:29:11.711Z,231.70
2022-08-24T21:31:38.901Z,234.57
2022-08-24T21:34:32.016Z,240.13
2022-08-24T21:36:58.641Z,237.35
2022-08-24T21:39:26.627Z,238.85
2022-08-24T21:41:54.689Z,234.35
2022-08-24T21:44:21.948Z,236.25
2022-08-24T21:46:53.282Z,241.90
2022-08-24T21:49:20.730Z,241.57
2022-08-24T21:51:47.441Z,238.97
2022-08-24T21:54:14.206Z,240.43
2022-08-24T21:56:40.951Z,243.00
2022-08-24T21:59:07.597Z,241.02
2022-08-24T22:01:34.513Z,237.55
2022-08-24T22:04:01.589Z,243.57
2022-08-24T22:06:31.606Z,246.65
2022-08-24T22:08:59.746Z,245.05
2022-08-24T22:11:26.461Z,250.55
2022-08-24T22:13:53.939Z,248.75
2022-08-24T22:16:21.900Z,251.50
2022-08-24T22:18:49.297Z,256.10
2022-08-24T22:21:19.564Z,252.82
2022-08-24T22:23:46.356Z,253.18
2022-08-24T22:26:13.056Z,253.35
2022-08-24T22:28:41.522Z,259.33
2022-08-24T22:31:17.214Z,258.13
2022-08-24T22:33:44.162Z,259.20
2022-08-24T22:36:11.481Z,268.05
2022-08-24T22:38:39.259Z,267.60
2022-08-24T22:41:06.726Z,269.15
2022-08-24T22:43:51.660Z,272.00
2022-08-24T22:46:18.694Z,273.92
2022-08-24T22:48:45.494Z,274.02
2022-08-24T22:51:12.887Z,275.30
2022-08-24T22:53:40.528Z,273.88
2022-08-24T22:56:25.675Z,274.85
2022-08-24T22:58:52.735Z,271.52
2022-08-24T23:01:26.490Z,270.38
2022-08-24T23:03:54.302Z,272.98
2022-08-24T23:06:21.995Z,270.50
2022-08-24T23:08:48.919Z,274.55
2022-08-24T23:11:15.975Z,275.88
2022-08-24T23:13:42.750Z,279.17
2022-08-24T23:16:12.294Z,276.02
2022-08-24T23:19:17.664Z,277.70
2022-08-24T23:21:44.768Z,279.60
2022-08-24T23:24:12.254Z,276.98
2022-08-24T23:26:40.147Z,284.33
2022-08-24T23:29:08.998Z,283.60
2022-08-24T23:31:36.883Z,287.15
2022-08-24T23:34:04.005Z,286.83
2022-08-24T23:36:30.753Z,288.13
2022-08-24T23:38:59.452Z,287.95
2022-08-24T23:41:29.946Z,287.13
2022-08-24T23:43:59.412Z,288.80
2022-08-24T23:46:26.890Z,287.63
2022-08-24T23:48:55.555Z,287.38
2022-08-24T23:51:23.922Z,286.77
2022-08-24T23:53:52.012Z,290.13
2022-08-24T23:56:30.814Z,284.30
2022-08-24T23:59:01.369Z,284.90
